SV2BZQ-2 Thessalonik GR current weather conditions

sailwx.info

Wind from 100

Air temperature 20.6° C
Dewpoint 19.4° C

Last reported at 2014-Sep-02 18:53 UTC.
Time now 2014-Sep-02 19:18 UTC

Location: N 40°41' E 022°51'.
View on Google Maps.

See reports from other nearby stations

  
Tides and Currents Weather Stations Pressure Air Temp Water Temp Dewpoint Dewpoint Depression Visibility Wind Speed Wind Dir Waves Ship Positions
date/time (UTC)wind fromknots sea level pressurealtimeterstation pressurevisibilityair tempwater tempwave heightnotes
2014-Sep-02 18:53 100 20.6
2014-Sep-02 18:46 099 2 gusting 7 20.0
2014-Sep-02 18:43 102 3 gusting 6 20.6
2014-Sep-02 18:33 064 4 gusting 6 20.6
2014-Sep-02 18:23 072 1 gusting 3 20.6
2014-Sep-02 18:16 063 3 gusting 12 20.0
2014-Sep-02 18:13 051 6 gusting 12 20.6
2014-Sep-02 18:03 059 5 gusting 12 20.6
2014-Sep-02 17:53 065 3 gusting 11 20.6
2014-Sep-02 17:45 063 1 gusting 6 20.0
2014-Sep-02 17:33 060 3 gusting 5 20.6
2014-Sep-02 17:30 063 4 gusting 13 20.0
2014-Sep-02 17:23 064 6 gusting 8 20.0
2014-Sep-02 17:15 071 5 gusting 12 19.4
2014-Sep-02 17:03 067 4 gusting 6 20.0
2014-Sep-02 17:00 068 3 gusting 10 19.4
2014-Sep-02 16:53 082 5 gusting 8 20.0
2014-Sep-02 16:45 093 4 gusting 8 20.0
2014-Sep-02 16:33 080 1 gusting 6 20.0
2014-Sep-02 16:30 109 0 gusting 6 20.0
2014-Sep-02 16:23 118 4 gusting 6 20.0
2014-Sep-02 16:15 164 3 gusting 6 20.0
2014-Sep-02 16:03 126 11 gusting 20 21.7
2014-Sep-02 16:00 136 7 gusting 18 21.7
2014-Sep-02 15:53 108 6 gusting 15 23.3
2014-Sep-02 15:44 119 4 gusting 8 23.3
2014-Sep-02 15:33 109 3 gusting 6 24.4
2014-Sep-02 15:29 074 2 gusting 6 23.9
2014-Sep-02 15:23 110 3 gusting 6 24.4
2014-Sep-02 15:15 118 2 gusting 8 24.4
2014-Sep-02 15:03 120 2 gusting 5 25.0
2014-Sep-02 14:59 106 0 gusting 8 24.4
2014-Sep-02 14:53 101 0 gusting 2 25.0
2014-Sep-02 14:44 118 6 gusting 9 25.0
2014-Sep-02 14:33 106 1 gusting 5 25.0
2014-Sep-02 14:29 104 1 gusting 8 25.0
2014-Sep-02 14:23 099 2 gusting 7 25.0
2014-Sep-02 14:14 098 4 gusting 12 25.0
2014-Sep-02 14:03 080 6 gusting 12 25.0
2014-Sep-02 13:59 084 6 gusting 12 25.0
2014-Sep-02 13:53 069 7 gusting 11 25.0
2014-Sep-02 13:44 087 5 gusting 14 25.0
2014-Sep-02 13:33 080 4 gusting 7 25.6
2014-Sep-02 13:29 069 7 gusting 15 25.0
2014-Sep-02 13:23 078 7 gusting 15 25.6
2014-Sep-02 13:14 085 10 gusting 16 25.6
2014-Sep-02 13:03 079 8 gusting 10 26.7
2014-Sep-02 12:59 125 10 gusting 16 26.7
2014-Sep-02 12:53 070 8 gusting 16 26.7
2014-Sep-02 12:43 068 7 gusting 14 26.7
2014-Sep-02 12:33 100 6 gusting 9 26.1
2014-Sep-02 12:28 095 6 gusting 12 25.6
2014-Sep-02 12:23 075 6 gusting 10 25.6
2014-Sep-02 12:13 093 8 gusting 17 25.0
2014-Sep-02 12:03 076 6 gusting 10 24.4
2014-Sep-02 11:58 062 4 gusting 13 24.4
2014-Sep-02 11:53 078 6 gusting 9 23.9
2014-Sep-02 11:43 086 6 gusting 11 23.9
2014-Sep-02 11:33 099 4 gusting 6 23.3
2014-Sep-02 11:28 067 6 gusting 11 22.8
2014-Sep-02 11:23 082 6 gusting 10 23.3
2014-Sep-02 11:13 076 4 gusting 9 23.3
2014-Sep-02 11:03 119 4 gusting 6 23.9
2014-Sep-02 10:57 126 6 gusting 12 23.9
2014-Sep-02 10:53 121 3 gusting 11 24.4
2014-Sep-02 10:43 114 1 gusting 7 25.0
2014-Sep-02 10:33 113 5 gusting 8 25.0
2014-Sep-02 10:27 131 5 gusting 13 24.4
2014-Sep-02 10:23 093 5 gusting 12 25.0
2014-Sep-02 10:13 108 3 gusting 6 25.0
2014-Sep-02 10:03 103 3 gusting 6 25.0
2014-Sep-02 09:57 145 4 gusting 9 25.0
2014-Sep-02 09:53 088 5 gusting 7 25.0
2014-Sep-02 09:43 113 2 gusting 6 25.0
2014-Sep-02 09:33 146 25.0
2014-Sep-02 09:27 141 0 gusting 4 24.4
2014-Sep-02 09:23 063 0 gusting 1 24.4
2014-Sep-02 09:13 109 2 gusting 6 24.4
2014-Sep-02 09:03 094 3 gusting 7 24.4
2014-Sep-02 08:57 078 5 gusting 10 23.9
2014-Sep-02 08:53 083 5 gusting 8 24.4
2014-Sep-02 08:43 098 5 gusting 8 25.0
2014-Sep-02 08:33 100 3 gusting 8 25.6
2014-Sep-02 08:26 082 4 gusting 10 25.6
2014-Sep-02 08:23 086 5 gusting 10 25.6
2014-Sep-02 08:13 098 4 gusting 6 25.6
2014-Sep-02 08:03 085 4 gusting 8 25.6
2014-Sep-02 07:56 082 2 gusting 13 25.6
2014-Sep-02 07:53 079 6 gusting 9 25.6
2014-Sep-02 07:43 081 7 gusting 11 25.6
2014-Sep-02 07:33 071 6 gusting 9 25.6
2014-Sep-02 07:26 084 6 gusting 13 25.0
2014-Sep-02 07:23 093 6 gusting 11 25.0
2014-Sep-02 07:13 081 6 gusting 8 24.4
2014-Sep-02 07:03 090 3 gusting 6 24.4
2014-Sep-02 06:56 063 3 gusting 12 23.9
2014-Sep-02 06:53 068 4 gusting 10 23.9
2014-Sep-02 06:43 082 6 gusting 8 23.9
2014-Sep-02 06:33 074 6 gusting 9 23.9
2014-Sep-02 06:25 061 3 gusting 11 23.9
2014-Sep-02 06:13 061 4 gusting 7 23.9
2014-Sep-02 06:10 051 4 gusting 10 23.9
2014-Sep-02 06:03 070 5 gusting 10 23.9
2014-Sep-02 05:56 067 4 gusting 8 23.9
2014-Sep-02 05:53 071 4 gusting 6 24.4
2014-Sep-02 05:43 081 3 gusting 5 23.9
2014-Sep-02 05:33 076 2 gusting 3 23.9
2014-Sep-02 05:25 064 2 gusting 5 23.9
2014-Sep-02 05:13 079 3 gusting 4 23.9
2014-Sep-02 05:10 083 2 gusting 6 23.9
2014-Sep-02 05:03 068 3 gusting 6 23.9
2014-Sep-02 04:55 064 2 gusting 6 23.9
2014-Sep-02 04:43 068 2 gusting 4 23.9
2014-Sep-02 04:40 061 4 gusting 10 23.9
2014-Sep-02 04:33 084 2 gusting 3 23.9
2014-Sep-02 04:25 083 0 gusting 6 23.9
2014-Sep-02 04:13 079 2 gusting 4 23.3
2014-Sep-02 04:09 085 0 gusting 5 23.3
2014-Sep-02 04:03 100 1 gusting 5 23.3
2014-Sep-02 03:54 101 23.3
2014-Sep-02 03:43 101 23.3
2014-Sep-02 03:39 101 23.3
2014-Sep-02 03:33 103 5 gusting 6 23.3
2014-Sep-02 03:24 113 0 gusting 5 23.3
2014-Sep-02 03:13 099 23.3
2014-Sep-02 03:09 099 2 gusting 7 22.8
2014-Sep-02 03:03 085 2 gusting 4 23.3
2014-Sep-02 02:54 082 1 gusting 4 22.8
2014-Sep-02 02:43 073 3 gusting 4 22.8
2014-Sep-02 02:39 082 2 gusting 6 22.8
2014-Sep-02 02:33 085 2 gusting 5 22.8
2014-Sep-02 02:23 082 2 gusting 6 22.8
2014-Sep-02 02:13 068 2 gusting 4 22.8
2014-Sep-02 02:08 080 0 gusting 5 22.2
2014-Sep-02 02:03 079 2 gusting 4 22.8
2014-Sep-02 01:53 086 2 gusting 7 22.2
2014-Sep-02 01:43 074 1 gusting 3 22.8
2014-Sep-02 01:38 073 22.8
2014-Sep-02 01:33 074 22.8
2014-Sep-02 01:23 079 1 gusting 5 22.8
2014-Sep-02 01:13 053 23.3
2014-Sep-02 01:08 053 0 gusting 4 23.3
2014-Sep-02 01:03 060 1 gusting 3 23.3
2014-Sep-02 00:54 061 0 gusting 4 23.3
2014-Sep-02 00:43 051 2 gusting 5 23.3
2014-Sep-02 00:38 050 1 gusting 6 23.3
2014-Sep-02 00:33 059 2 gusting 5 23.3
2014-Sep-02 00:23 125 23.3
2014-Sep-02 00:13 142 23.9
2014-Sep-02 00:08 142 0 gusting 2 23.3
2014-Sep-02 00:03 141 23.9
2014-Sep-01 23:53 142 23.9
2014-Sep-01 23:43 142 23.9
2014-Sep-01 23:37 141 23.9
2014-Sep-01 23:33 142 23.9
2014-Sep-01 23:23 142 23.9
2014-Sep-01 23:13 142 23.9
2014-Sep-01 23:07 142 23.9
2014-Sep-01 23:03 142 23.9
2014-Sep-01 22:53 142 24.4
2014-Sep-01 22:43 142 24.4
2014-Sep-01 22:37 141 23.9
2014-Sep-01 22:33 142 24.4
2014-Sep-01 22:23 142 24.4
2014-Sep-01 22:13 142 24.4
2014-Sep-01 22:07 142 23.9
2014-Sep-01 22:03 142 24.4
2014-Sep-01 21:53 142 24.4
2014-Sep-01 21:43 142 24.4
2014-Sep-01 21:37 141 24.4
2014-Sep-01 21:33 142 24.4
2014-Sep-01 21:23 142 24.4
2014-Sep-01 21:13 142 25.0
2014-Sep-01 21:07 142 24.4
2014-Sep-01 21:03 142 25.0
2014-Sep-01 20:53 142 25.0
2014-Sep-01 20:43 142 25.0
2014-Sep-01 20:36 142 24.4
2014-Sep-01 20:33 142 25.0
2014-Sep-01 20:23 142 25.0
2014-Sep-01 20:13 142 25.0
2014-Sep-01 20:06 141 24.4
2014-Sep-01 20:03 142 25.0
2014-Sep-01 19:53 142 25.0
2014-Sep-01 19:43 142 25.0
2014-Sep-01 19:36 142 25.0
2014-Sep-01 19:33 139 25.0
2014-Sep-01 19:23 137 0 gusting 0 25.0
2014-Sep-01 19:13 138 1 gusting 4 25.0
2014-Sep-01 19:06 138 25.0
2014-Sep-01 19:03 138 0 gusting 1 25.0
2014-Sep-01 18:53 129 0 gusting 1 25.0
2014-Sep-01 18:43 121 2 gusting 6 25.6
2014-Sep-01 18:36 128 2 gusting 7 25.0
2014-Sep-01 18:33 125 1 gusting 2 25.6
2014-Sep-01 18:23 136 1 gusting 4 25.6
2014-Sep-01 18:13 147 1 gusting 5 25.6
2014-Sep-01 18:05 150 0 gusting 9 25.0
2014-Sep-01 17:53 153 1 gusting 5 25.6
2014-Sep-01 17:50 155 1 gusting 6 25.0
2014-Sep-01 17:43 145 2 gusting 4 25.6
2014-Sep-01 17:35 142 25.0
2014-Sep-01 17:23 142 0 gusting 5 25.6
2014-Sep-01 17:20 141 25.6
2014-Sep-01 17:13 162 2 gusting 5 26.1
2014-Sep-01 17:05 182 3 gusting 7 25.6
2014-Sep-01 16:53 171 1 gusting 6 26.1
2014-Sep-01 16:50 175 3 gusting 6 25.6
2014-Sep-01 16:43 173 0 gusting 4 26.1
2014-Sep-01 16:35 186 0 gusting 7 25.6
2014-Sep-01 16:23 178 5 gusting 9 26.1
2014-Sep-01 16:20 196 2 gusting 7 25.6
2014-Sep-01 16:13 176 4 gusting 7 26.1
2014-Sep-01 16:05 161 3 gusting 7 25.6
2014-Sep-01 15:53 185 2 gusting 7 26.1
2014-Sep-01 15:50 182 2 gusting 6 26.1
2014-Sep-01 15:43 187 4 gusting 6 26.1
2014-Sep-01 15:35 202 1 gusting 7 26.1
2014-Sep-01 15:23 199 6 gusting 13 26.7
2014-Sep-01 15:20 208 4 gusting 10 26.1
2014-Sep-01 15:13 171 3 gusting 4 26.7
2014-Sep-01 15:04 194 4 gusting 11 26.7
2014-Sep-01 14:53 183 3 gusting 6 27.2
2014-Sep-01 14:50 219 5 gusting 12 27.2
2014-Sep-01 14:43 203 6 gusting 10 27.8
2014-Sep-01 14:34 186 6 gusting 13 27.8
2014-Sep-01 14:23 181 3 gusting 6 28.3
2014-Sep-01 14:19 206 6 gusting 13 28.3
2014-Sep-01 14:13 201 6 gusting 7 28.9
2014-Sep-01 14:04 173 4 gusting 13 28.9
2014-Sep-01 13:53 200 5 gusting 9 28.9
2014-Sep-01 13:49 163 5 gusting 9 28.9
2014-Sep-01 13:43 198 3 gusting 10 29.4
2014-Sep-01 13:34 182 5 gusting 12 29.4
2014-Sep-01 13:23 193 6 gusting 9 30.0
2014-Sep-01 13:19 201 5 gusting 11 30.0
2014-Sep-01 13:13 193 4 gusting 8 30.6
2014-Sep-01 13:04 170 4 gusting 13 29.4
2014-Sep-01 12:53 202 6 gusting 8 30.0
2014-Sep-01 12:48 182 4 gusting 10 29.4
2014-Sep-01 12:43 204 6 gusting 11 30.0
2014-Sep-01 12:33 167 6 gusting 12 29.4
2014-Sep-01 12:23 192 6 gusting 11 29.4
2014-Sep-01 12:18 187 6 gusting 13 29.4
2014-Sep-01 12:13 206 6 gusting 9 30.0
2014-Sep-01 12:03 178 4 gusting 12 30.0
2014-Sep-01 11:53 183 5 gusting 8 30.0
2014-Sep-01 11:48 196 4 gusting 11 30.0
2014-Sep-01 11:43 194 6 gusting 9 30.0
2014-Sep-01 11:33 199 4 gusting 9 30.0
2014-Sep-01 11:23 191 3 gusting 8 30.0
2014-Sep-01 11:18 205 3 gusting 11 30.0
2014-Sep-01 11:13 195 5 gusting 11 30.0
2014-Sep-01 11:03 199 3 gusting 10 30.0
2014-Sep-01 10:53 182 4 gusting 6 30.0
2014-Sep-01 10:47 198 3 gusting 9 29.4
2014-Sep-01 10:43 200 5 gusting 10 30.0
2014-Sep-01 10:33 175 4 gusting 10 29.4
2014-Sep-01 10:23 187 4 gusting 9 30.0
2014-Sep-01 10:17 172 2 gusting 10 29.4
2014-Sep-01 10:13 230 4 gusting 9 29.4
2014-Sep-01 10:03 208 2 gusting 6 29.4
2014-Sep-01 09:53 200 5 gusting 6 29.4
2014-Sep-01 09:47 210 2 gusting 8 29.4
2014-Sep-01 09:43 169 4 gusting 10 29.4
2014-Sep-01 09:33 199 4 gusting 10 29.4
2014-Sep-01 09:23 207 5 gusting 9 29.4
2014-Sep-01 09:17 160 2 gusting 8 28.9
2014-Sep-01 09:13 169 2 gusting 4 28.9
2014-Sep-01 09:03 215 2 gusting 7 28.9
2014-Sep-01 08:53 179 3 gusting 5 29.4
2014-Sep-01 08:46 182 1 gusting 7 28.9
2014-Sep-01 08:43 200 3 gusting 5 29.4
2014-Sep-01 08:33 160 0 gusting 4 29.4
2014-Sep-01 08:23 140 0 gusting 1 29.4
2014-Sep-01 08:16 119 1 gusting 6 28.9
2014-Sep-01 08:13 197 1 gusting 2 28.9
2014-Sep-01 08:03 169 28.3
2014-Sep-01 07:53 147 28.3
2014-Sep-01 07:46 184 0 gusting 5 27.8
2014-Sep-01 07:43 150 0 gusting 5 28.3
2014-Sep-01 07:33 171 0 gusting 3 27.8
2014-Sep-01 07:23 165 2 gusting 4 27.8
2014-Sep-01 07:15 173 26.7
2014-Sep-01 07:03 166 26.1
2014-Sep-01 07:00 165 25.6
2014-Sep-01 06:53 235 25.6
2014-Sep-01 06:45 258 24.4
2014-Sep-01 06:33 258 23.9
2014-Sep-01 06:23 258 22.8
2014-Sep-01 06:15 257 22.2
2014-Sep-01 06:03 258 21.7
2014-Sep-01 06:00 258 21.7
2014-Sep-01 05:53 258 21.7
2014-Sep-01 05:45 257 21.1
2014-Sep-01 05:33 257 0 gusting 2 21.1
2014-Sep-01 05:29 257 0 gusting 3 20.6
2014-Sep-01 05:23 257 1 gusting 1 20.6
2014-Sep-01 05:14 256 20.0
2014-Sep-01 05:03 249 1 gusting 3 20.6
2014-Sep-01 04:59 246 1 gusting 3 20.0
2014-Sep-01 04:53 246 20.0
2014-Sep-01 04:44 246 0 gusting 4 20.0
2014-Sep-01 04:33 225 0 gusting 3 20.0
2014-Sep-01 04:29 225 0 gusting 3 20.0
2014-Sep-01 04:23 223 0 gusting 2 20.0
2014-Sep-01 04:14 223 1 gusting 4 20.0
2014-Sep-01 04:03 212 20.6
2014-Sep-01 03:58 212 0 gusting 3 20.0
2014-Sep-01 03:53 211 1 gusting 3 20.6
2014-Sep-01 03:43 211 0 gusting 2 20.0
2014-Sep-01 03:33 210 0 gusting 2 20.6
2014-Sep-01 03:28 210 20.6
2014-Sep-01 03:23 209 20.6
2014-Sep-01 03:13 209 20.6
2014-Sep-01 03:03 209 21.1
2014-Sep-01 02:59 209 20.6
2014-Sep-01 02:53 209 0 gusting 1 21.1
2014-Sep-01 02:43 209 0 gusting 2 21.1
2014-Sep-01 02:33 209 21.1
2014-Sep-01 02:28 209 21.1
2014-Sep-01 02:23 209 0 21.7
2014-Sep-01 02:13 136 21.7
2014-Sep-01 02:03 134 21.7
2014-Sep-01 01:58 133 1 gusting 2 21.7
2014-Sep-01 01:53 127 22.2
2014-Sep-01 01:43 127 22.2
2014-Sep-01 01:33 127 22.8
2014-Sep-01 01:28 126 22.2
2014-Sep-01 01:23 127 22.8
2014-Sep-01 01:13 127 22.8
2014-Sep-01 01:03 127 22.8
2014-Sep-01 00:57 127 22.2
2014-Sep-01 00:53 128 22.8
2014-Sep-01 00:43 128 22.8
2014-Sep-01 00:33 128 22.8
2014-Sep-01 00:27 128 22.8
2014-Sep-01 00:23 128 22.8
2014-Sep-01 00:13 128 23.3
2014-Sep-01 00:03 128 23.3
2014-Aug-31 23:57 128 22.8
2014-Aug-31 23:53 128 23.3
2014-Aug-31 23:44 128 23.3
2014-Aug-31 23:33 128 23.3
2014-Aug-31 23:27 128 23.3
2014-Aug-31 23:23 128 23.3
2014-Aug-31 23:13 128 23.3
2014-Aug-31 23:03 128 0 gusting 1 23.3
2014-Aug-31 22:57 126 23.3
2014-Aug-31 22:53 127 23.3
2014-Aug-31 22:43 127 23.9
2014-Aug-31 22:33 127 23.9
2014-Aug-31 22:26 127 23.3
2014-Aug-31 22:23 127 23.9
2014-Aug-31 22:13 127 23.9
2014-Aug-31 22:03 127 23.9
2014-Aug-31 21:56 126 23.9
2014-Aug-31 21:53 127 0 gusting 1 23.9
2014-Aug-31 21:43 127 0 gusting 1 23.9
2014-Aug-31 21:33 127 0 gusting 1 24.4
2014-Aug-31 21:26 128 0 gusting 3 23.9
2014-Aug-31 21:23 129 24.4
2014-Aug-31 21:13 130 0 gusting 2 24.4
2014-Aug-31 21:03 130 24.4
2014-Aug-31 20:56 132 0 gusting 3 23.9
2014-Aug-31 20:53 134 24.4
2014-Aug-31 20:43 134 0 gusting 1 24.4
2014-Aug-31 20:33 134 1 gusting 2 24.4
2014-Aug-31 20:26 123 1 gusting 6 23.9
2014-Aug-31 20:23 132 1 gusting 3 24.4
2014-Aug-31 20:13 132 2 gusting 4 24.4
2014-Aug-31 20:03 130 2 gusting 6 24.4
2014-Aug-31 19:56 123 1 gusting 6 24.4
2014-Aug-31 19:53 125 0 gusting 2 24.4
2014-Aug-31 19:43 131 24.4
2014-Aug-31 19:40 130 0 gusting 6 24.4
2014-Aug-31 19:33 146 1 gusting 2 24.4
2014-Aug-31 19:26 159 1 gusting 6 24.4
2014-Aug-31 19:23 150 3 gusting 5 24.4
2014-Aug-31 19:13 124 3 gusting 6 25.0
2014-Aug-31 19:10 126 1 gusting 6 24.4
2014-Aug-31 19:03 141 2 gusting 6 25.0